Beaumont, California
Current Conditions -  °F | °C
As of 4:58 PM on Friday 28 Nov 2014 (Local Time) from KRIV Reporting Station
Clear Clear  
Wind Chill: 69°   Ceiling: Unl
Heat Index: 69°   Visibility: 10mi
Dew Point: 24°   Wind: 5mph
Humidity: 19%   Direction: 290°WNW
Pressure: 29.91"   Gusts: NA
Location:  33.93°N, 116.97°W
Report Text: KRIV 290058Z AUTO 29004KT 10SM CLR 21/M04 A2991 RMK AO2 SLP125 T02071042
Loading
Personal Weather Stations






























Interactive Weather Map New forecast layout! Learn more

10-Day Weather Forecast

Advertisements
Track Severe Weather on mobile